sensor_id;sensor_type;location;lat;lon;timestamp;temperature;humidity
48912;DHT22;34722;52.108;5.044;2023-02-15T00:01:43;2.20;99.90
48912;DHT22;34722;52.108;5.044;2023-02-15T00:04:09;2.20;99.90
48912;DHT22;34722;52.108;5.044;2023-02-15T00:06:35;2.20;99.90
48912;DHT22;34722;52.108;5.044;2023-02-15T00:09:02;2.10;99.90
48912;DHT22;34722;52.108;5.044;2023-02-15T00:11:28;2.10;99.90
48912;DHT22;34722;52.108;5.044;2023-02-15T00:14:23;2.10;99.90
48912;DHT22;34722;52.108;5.044;2023-02-15T00:16:51;2.00;99.90
48912;DHT22;34722;52.108;5.044;2023-02-15T00:19:18;2.10;99.90
48912;DHT22;34722;52.108;5.044;2023-02-15T00:21:45;2.10;99.90
48912;DHT22;34722;52.108;5.044;2023-02-15T00:24:12;2.00;99.90
48912;DHT22;34722;52.108;5.044;2023-02-15T00:26:39;2.00;99.90
48912;DHT22;34722;52.108;5.044;2023-02-15T00:29:05;2.00;99.90
48912;DHT22;34722;52.108;5.044;2023-02-15T00:31:50;2.00;99.90
48912;DHT22;34722;52.108;5.044;2023-02-15T00:34:24;2.10;99.90
48912;DHT22;34722;52.108;5.044;2023-02-15T00:36:50;2.00;99.90
48912;DHT22;34722;52.108;5.044;2023-02-15T00:39:16;1.90;99.90
48912;DHT22;34722;52.108;5.044;2023-02-15T00:44:56;1.80;99.90
48912;DHT22;34722;52.108;5.044;2023-02-15T00:47:21;1.90;99.90
48912;DHT22;34722;52.108;5.044;2023-02-15T00:49:47;1.90;99.90
48912;DHT22;34722;52.108;5.044;2023-02-15T00:52:13;1.80;99.90
48912;DHT22;34722;52.108;5.044;2023-02-15T00:54:38;1.90;99.90
48912;DHT22;34722;52.108;5.044;2023-02-15T00:57:04;1.80;99.90
48912;DHT22;34722;52.108;5.044;2023-02-15T00:59:29;1.80;99.90
48912;DHT22;34722;52.108;5.044;2023-02-15T01:01:55;1.80;99.90
48912;DHT22;34722;52.108;5.044;2023-02-15T01:04:20;1.80;99.90
48912;DHT22;34722;52.108;5.044;2023-02-15T01:06:46;1.70;99.90
48912;DHT22;34722;52.108;5.044;2023-02-15T01:09:11;1.60;99.90
48912;DHT22;34722;52.108;5.044;2023-02-15T01:11:38;1.70;99.90
48912;DHT22;34722;52.108;5.044;2023-02-15T01:14:04;1.70;99.90
48912;DHT22;34722;52.108;5.044;2023-02-15T01:16:32;1.70;99.90
48912;DHT22;34722;52.108;5.044;2023-02-15T01:18:58;1.70;99.90
48912;DHT22;34722;52.108;5.044;2023-02-15T01:21:25;1.80;99.90
48912;DHT22;34722;52.108;5.044;2023-02-15T01:23:50;1.80;99.90
48912;DHT22;34722;52.108;5.044;2023-02-15T01:26:17;1.70;99.90
48912;DHT22;34722;52.108;5.044;2023-02-15T01:28:43;1.60;99.90
48912;DHT22;34722;52.108;5.044;2023-02-15T01:31:11;1.60;99.90
48912;DHT22;34722;52.108;5.044;2023-02-15T01:33:37;1.70;99.90
48912;DHT22;34722;52.108;5.044;2023-02-15T01:36:04;1.70;99.90
48912;DHT22;34722;52.108;5.044;2023-02-15T01:38:29;1.70;99.90
48912;DHT22;34722;52.108;5.044;2023-02-15T01:40:55;1.60;99.90
48912;DHT22;34722;52.108;5.044;2023-02-15T01:43:47;1.60;99.90
48912;DHT22;34722;52.108;5.044;2023-02-15T01:46:16;1.60;99.90
48912;DHT22;34722;52.108;5.044;2023-02-15T01:48:54;1.60;99.90
48912;DHT22;34722;52.108;5.044;2023-02-15T01:51:24;1.70;99.90
48912;DHT22;34722;52.108;5.044;2023-02-15T01:54:08;1.70;99.90
48912;DHT22;34722;52.108;5.044;2023-02-15T01:56:37;1.70;99.90
48912;DHT22;34722;52.108;5.044;2023-02-15T01:59:09;1.70;99.90
48912;DHT22;34722;52.108;5.044;2023-02-15T02:01:37;1.70;99.90
48912;DHT22;34722;52.108;5.044;2023-02-15T02:05:01;1.70;99.90
48912;DHT22;34722;52.108;5.044;2023-02-15T02:07:02;1.80;99.90
48912;DHT22;34722;52.108;5.044;2023-02-15T02:09:29;2.00;99.90
48912;DHT22;34722;52.108;5.044;2023-02-15T02:11:55;2.20;99.90
48912;DHT22;34722;52.108;5.044;2023-02-15T02:14:27;2.40;99.90
48912;DHT22;34722;52.108;5.044;2023-02-15T02:17:04;2.40;99.90
48912;DHT22;34722;52.108;5.044;2023-02-15T02:27:30;2.30;99.90
48912;DHT22;34722;52.108;5.044;2023-02-15T02:45:12;2.20;99.90
48912;DHT22;34722;52.108;5.044;2023-02-15T02:47:53;2.00;99.90
48912;DHT22;34722;52.108;5.044;2023-02-15T02:50:27;2.00;99.90
48912;DHT22;34722;52.108;5.044;2023-02-15T02:52:55;2.00;99.90
48912;DHT22;34722;52.108;5.044;2023-02-15T03:00:41;2.00;99.90
48912;DHT22;34722;52.108;5.044;2023-02-15T03:03:13;1.90;99.90
48912;DHT22;34722;52.108;5.044;2023-02-15T03:05:43;1.80;99.90
48912;DHT22;34722;52.108;5.044;2023-02-15T03:08:11;1.80;99.90
48912;DHT22;34722;52.108;5.044;2023-02-15T03:10:38;1.80;99.90
48912;DHT22;34722;52.108;5.044;2023-02-15T03:13:13;2.00;99.90
48912;DHT22;34722;52.108;5.044;2023-02-15T03:15:46;2.00;99.90
48912;DHT22;34722;52.108;5.044;2023-02-15T03:19:00;2.10;99.90
48912;DHT22;34722;52.108;5.044;2023-02-15T03:21:47;2.20;99.90
48912;DHT22;34722;52.108;5.044;2023-02-15T03:24:18;2.10;99.90
48912;DHT22;34722;52.108;5.044;2023-02-15T03:26:47;2.00;99.90
48912;DHT22;34722;52.108;5.044;2023-02-15T03:29:15;1.90;99.90
48912;DHT22;34722;52.108;5.044;2023-02-15T03:31:46;1.80;99.90
48912;DHT22;34722;52.108;5.044;2023-02-15T03:34:15;1.80;99.90
48912;DHT22;34722;52.108;5.044;2023-02-15T03:36:46;1.70;99.90
48912;DHT22;34722;52.108;5.044;2023-02-15T03:39:33;1.70;99.90
48912;DHT22;34722;52.108;5.044;2023-02-15T03:42:21;1.70;99.90
48912;DHT22;34722;52.108;5.044;2023-02-15T03:45:05;1.70;99.90
48912;DHT22;34722;52.108;5.044;2023-02-15T03:47:41;1.60;99.90
48912;DHT22;34722;52.108;5.044;2023-02-15T03:50:23;1.60;99.90
48912;DHT22;34722;52.108;5.044;2023-02-15T03:53:11;1.50;99.90
48912;DHT22;34722;52.108;5.044;2023-02-15T03:55:39;1.60;99.90
48912;DHT22;34722;52.108;5.044;2023-02-15T03:58:04;2.00;99.90
48912;DHT22;34722;52.108;5.044;2023-02-15T04:00:57;2.30;99.90
48912;DHT22;34722;52.108;5.044;2023-02-15T04:03:54;2.60;99.90
48912;DHT22;34722;52.108;5.044;2023-02-15T04:06:21;2.70;99.90
48912;DHT22;34722;52.108;5.044;2023-02-15T04:08:47;2.70;99.90
48912;DHT22;34722;52.108;5.044;2023-02-15T04:11:31;2.70;99.90
48912;DHT22;34722;52.108;5.044;2023-02-15T04:13:56;2.70;99.90
48912;DHT22;34722;52.108;5.044;2023-02-15T04:16:23;2.60;99.90
48912;DHT22;34722;52.108;5.044;2023-02-15T04:18:49;2.80;99.90
48912;DHT22;34722;52.108;5.044;2023-02-15T04:21:33;2.80;99.90
48912;DHT22;34722;52.108;5.044;2023-02-15T04:24:18;2.90;99.90
48912;DHT22;34722;52.108;5.044;2023-02-15T04:27:03;3.00;99.90
48912;DHT22;34722;52.108;5.044;2023-02-15T04:29:29;3.10;99.90
48912;DHT22;34722;52.108;5.044;2023-02-15T04:31:58;3.10;99.90
48912;DHT22;34722;52.108;5.044;2023-02-15T04:34:24;3.20;99.90
48912;DHT22;34722;52.108;5.044;2023-02-15T04:36:50;3.20;99.90
48912;DHT22;34722;52.108;5.044;2023-02-15T04:39:17;3.30;99.90
48912;DHT22;34722;52.108;5.044;2023-02-15T04:41:44;3.30;99.90
48912;DHT22;34722;52.108;5.044;2023-02-15T04:44:10;3.30;99.90
48912;DHT22;34722;52.108;5.044;2023-02-15T04:46:35;3.30;99.90
48912;DHT22;34722;52.108;5.044;2023-02-15T04:49:01;3.20;99.90
48912;DHT22;34722;52.108;5.044;2023-02-15T04:51:27;3.10;99.90
48912;DHT22;34722;52.108;5.044;2023-02-15T04:53:52;3.10;99.90
48912;DHT22;34722;52.108;5.044;2023-02-15T04:56:19;3.10;99.90
48912;DHT22;34722;52.108;5.044;2023-02-15T04:58:45;3.10;99.90
48912;DHT22;34722;52.108;5.044;2023-02-15T05:01:10;3.20;99.90
48912;DHT22;34722;52.108;5.044;2023-02-15T05:03:36;3.20;99.90
48912;DHT22;34722;52.108;5.044;2023-02-15T05:06:03;3.20;99.90
48912;DHT22;34722;52.108;5.044;2023-02-15T05:08:28;3.20;99.90
48912;DHT22;34722;52.108;5.044;2023-02-15T05:10:54;3.20;99.90
48912;DHT22;34722;52.108;5.044;2023-02-15T05:13:20;3.20;99.90
48912;DHT22;34722;52.108;5.044;2023-02-15T05:15:52;3.10;99.90
48912;DHT22;34722;52.108;5.044;2023-02-15T05:18:19;3.10;99.90
48912;DHT22;34722;52.108;5.044;2023-02-15T05:20:45;3.00;99.90
48912;DHT22;34722;52.108;5.044;2023-02-15T05:26:37;3.00;99.90
48912;DHT22;34722;52.108;5.044;2023-02-15T05:29:22;3.00;99.90
48912;DHT22;34722;52.108;5.044;2023-02-15T05:31:47;3.00;99.90
48912;DHT22;34722;52.108;5.044;2023-02-15T05:34:13;2.90;99.90
48912;DHT22;34722;52.108;5.044;2023-02-15T05:36:38;2.90;99.90
48912;DHT22;34722;52.108;5.044;2023-02-15T05:39:04;2.90;99.90
48912;DHT22;34722;52.108;5.044;2023-02-15T05:41:31;2.80;99.90
48912;DHT22;34722;52.108;5.044;2023-02-15T05:43:56;2.80;99.90
48912;DHT22;34722;52.108;5.044;2023-02-15T05:46:22;2.80;99.90
48912;DHT22;34722;52.108;5.044;2023-02-15T05:48:47;2.70;99.90
48912;DHT22;34722;52.108;5.044;2023-02-15T05:51:13;2.70;99.90
48912;DHT22;34722;52.108;5.044;2023-02-15T05:53:41;2.80;99.90
48912;DHT22;34722;52.108;5.044;2023-02-15T05:56:08;2.80;99.90
48912;DHT22;34722;52.108;5.044;2023-02-15T05:58:37;2.90;99.90
48912;DHT22;34722;52.108;5.044;2023-02-15T06:01:10;2.90;99.90
48912;DHT22;34722;52.108;5.044;2023-02-15T06:03:36;2.90;99.90
48912;DHT22;34722;52.108;5.044;2023-02-15T06:06:02;2.80;99.90
48912;DHT22;34722;52.108;5.044;2023-02-15T06:08:30;2.80;99.90
48912;DHT22;34722;52.108;5.044;2023-02-15T06:10:56;2.80;99.90
48912;DHT22;34722;52.108;5.044;2023-02-15T06:13:21;2.80;99.90
48912;DHT22;34722;52.108;5.044;2023-02-15T06:15:47;2.80;99.90
48912;DHT22;34722;52.108;5.044;2023-02-15T06:18:13;2.80;99.90
48912;DHT22;34722;52.108;5.044;2023-02-15T06:20:41;2.80;99.90
48912;DHT22;34722;52.108;5.044;2023-02-15T06:23:09;2.70;99.90
48912;DHT22;34722;52.108;5.044;2023-02-15T06:25:34;2.70;99.90
48912;DHT22;34722;52.108;5.044;2023-02-15T06:28:15;2.70;99.90
48912;DHT22;34722;52.108;5.044;2023-02-15T06:33:35;2.60;99.90
48912;DHT22;34722;52.108;5.044;2023-02-15T06:36:01;2.60;99.90
48912;DHT22;34722;52.108;5.044;2023-02-15T06:38:27;2.60;99.90
48912;DHT22;34722;52.108;5.044;2023-02-15T06:40:52;2.60;99.90
48912;DHT22;34722;52.108;5.044;2023-02-15T06:43:18;2.70;99.90
48912;DHT22;34722;52.108;5.044;2023-02-15T06:45:43;2.70;99.90
48912;DHT22;34722;52.108;5.044;2023-02-15T06:48:09;2.70;99.90
48912;DHT22;34722;52.108;5.044;2023-02-15T06:50:36;2.70;99.90
48912;DHT22;34722;52.108;5.044;2023-02-15T06:53:02;2.60;99.90
48912;DHT22;34722;52.108;5.044;2023-02-15T06:55:28;2.60;99.90
48912;DHT22;34722;52.108;5.044;2023-02-15T06:57:54;2.60;99.90
48912;DHT22;34722;52.108;5.044;2023-02-15T07:00:19;2.50;99.90
48912;DHT22;34722;52.108;5.044;2023-02-15T07:02:47;2.50;99.90
48912;DHT22;34722;52.108;5.044;2023-02-15T07:05:13;2.60;99.90
48912;DHT22;34722;52.108;5.044;2023-02-15T07:07:38;2.70;99.90
48912;DHT22;34722;52.108;5.044;2023-02-15T07:10:04;2.70;99.90
48912;DHT22;34722;52.108;5.044;2023-02-15T07:12:30;2.70;99.90
48912;DHT22;34722;52.108;5.044;2023-02-15T07:15:21;2.80;99.90
48912;DHT22;34722;52.108;5.044;2023-02-15T07:17:47;2.80;99.90
48912;DHT22;34722;52.108;5.044;2023-02-15T07:20:21;2.80;99.90
48912;DHT22;34722;52.108;5.044;2023-02-15T07:22:48;2.90;99.90
48912;DHT22;34722;52.108;5.044;2023-02-15T07:25:14;3.00;99.90
48912;DHT22;34722;52.108;5.044;2023-02-15T07:27:40;3.00;99.90
48912;DHT22;34722;52.108;5.044;2023-02-15T07:33:09;3.10;99.90
48912;DHT22;34722;52.108;5.044;2023-02-15T07:35:56;3.20;99.90
48912;DHT22;34722;52.108;5.044;2023-02-15T07:38:24;3.20;99.90
48912;DHT22;34722;52.108;5.044;2023-02-15T07:40:49;3.30;99.90
48912;DHT22;34722;52.108;5.044;2023-02-15T07:43:15;3.40;99.90
48912;DHT22;34722;52.108;5.044;2023-02-15T07:45:42;3.40;99.90
48912;DHT22;34722;52.108;5.044;2023-02-15T07:48:08;3.50;99.90
48912;DHT22;34722;52.108;5.044;2023-02-15T07:50:34;3.50;99.90
48912;DHT22;34722;52.108;5.044;2023-02-15T07:53:04;3.50;99.90
48912;DHT22;34722;52.108;5.044;2023-02-15T07:55:30;3.70;99.90
48912;DHT22;34722;52.108;5.044;2023-02-15T07:57:55;3.80;99.90
48912;DHT22;34722;52.108;5.044;2023-02-15T08:00:22;3.90;99.90
48912;DHT22;34722;52.108;5.044;2023-02-15T08:02:53;4.40;99.90
48912;DHT22;34722;52.108;5.044;2023-02-15T08:05:38;5.20;99.90
48912;DHT22;34722;52.108;5.044;2023-02-15T08:08:04;5.70;99.90
48912;DHT22;34722;52.108;5.044;2023-02-15T08:10:30;5.90;99.90
48912;DHT22;34722;52.108;5.044;2023-02-15T08:13:15;6.10;99.90
48912;DHT22;34722;52.108;5.044;2023-02-15T08:15:50;6.70;99.90
48912;DHT22;34722;52.108;5.044;2023-02-15T08:18:16;7.30;99.90
48912;DHT22;34722;52.108;5.044;2023-02-15T08:20:42;8.40;99.90
48912;DHT22;34722;52.108;5.044;2023-02-15T08:23:07;9.20;99.90
48912;DHT22;34722;52.108;5.044;2023-02-15T08:25:33;9.50;99.90
48912;DHT22;34722;52.108;5.044;2023-02-15T08:27:59;9.50;99.90
48912;DHT22;34722;52.108;5.044;2023-02-15T08:30:25;9.00;99.90
48912;DHT22;34722;52.108;5.044;2023-02-15T08:32:50;8.80;99.90
48912;DHT22;34722;52.108;5.044;2023-02-15T08:35:16;9.00;99.90
48912;DHT22;34722;52.108;5.044;2023-02-15T08:37:42;9.20;99.90
48912;DHT22;34722;52.108;5.044;2023-02-15T08:40:08;10.10;99.90
48912;DHT22;34722;52.108;5.044;2023-02-15T08:42:34;10.60;99.90
48912;DHT22;34722;52.108;5.044;2023-02-15T08:44:59;10.20;99.90
48912;DHT22;34722;52.108;5.044;2023-02-15T08:47:25;9.90;99.90
48912;DHT22;34722;52.108;5.044;2023-02-15T08:49:50;9.90;99.90
48912;DHT22;34722;52.108;5.044;2023-02-15T08:52:16;10.10;99.90
48912;DHT22;34722;52.108;5.044;2023-02-15T08:54:42;10.30;99.90
48912;DHT22;34722;52.108;5.044;2023-02-15T08:57:08;9.90;99.90
48912;DHT22;34722;52.108;5.044;2023-02-15T08:59:35;8.90;99.90
48912;DHT22;34722;52.108;5.044;2023-02-15T09:02:01;8.30;99.90
48912;DHT22;34722;52.108;5.044;2023-02-15T09:04:26;8.30;99.90
48912;DHT22;34722;52.108;5.044;2023-02-15T09:06:52;8.70;99.90
48912;DHT22;34722;52.108;5.044;2023-02-15T09:09:19;9.00;99.90
48912;DHT22;34722;52.108;5.044;2023-02-15T09:11:47;9.30;99.90
48912;DHT22;34722;52.108;5.044;2023-02-15T09:14:19;9.50;99.90
48912;DHT22;34722;52.108;5.044;2023-02-15T09:16:46;9.40;99.90
48912;DHT22;34722;52.108;5.044;2023-02-15T09:19:15;9.60;99.90
48912;DHT22;34722;52.108;5.044;2023-02-15T09:21:41;10.00;99.90
48912;DHT22;34722;52.108;5.044;2023-02-15T09:24:12;10.10;99.90
48912;DHT22;34722;52.108;5.044;2023-02-15T09:26:39;10.20;99.90
48912;DHT22;34722;52.108;5.044;2023-02-15T09:29:09;10.10;99.90
48912;DHT22;34722;52.108;5.044;2023-02-15T09:31:40;10.10;99.90
48912;DHT22;34722;52.108;5.044;2023-02-15T09:34:09;10.20;76.40
48912;DHT22;34722;52.108;5.044;2023-02-15T09:36:37;10.90;1.00
48912;DHT22;34722;52.108;5.044;2023-02-15T09:39:07;11.70;1.00
48912;DHT22;34722;52.108;5.044;2023-02-15T09:45:14;13.40;99.90
48912;DHT22;34722;52.108;5.044;2023-02-15T09:50:20;14.50;99.90
48912;DHT22;34722;52.108;5.044;2023-02-15T10:06:27;15.50;61.20
48912;DHT22;34722;52.108;5.044;2023-02-15T10:12:03;16.20;1.00
48912;DHT22;34722;52.108;5.044;2023-02-15T10:17:47;16.10;1.00
48912;DHT22;34722;52.108;5.044;2023-02-15T10:25:42;17.60;1.00
48912;DHT22;34722;52.108;5.044;2023-02-15T10:28:20;17.60;1.00
48912;DHT22;34722;52.108;5.044;2023-02-15T10:30:50;17.50;99.90
48912;DHT22;34722;52.108;5.044;2023-02-15T10:36:57;17.00;99.90
48912;DHT22;34722;52.108;5.044;2023-02-15T10:39:36;16.50;99.90
48912;DHT22;34722;52.108;5.044;2023-02-15T10:50:40;14.70;1.00
48912;DHT22;34722;52.108;5.044;2023-02-15T11:01:19;14.20;28.60
48912;DHT22;34722;52.108;5.044;2023-02-15T11:06:26;13.10;99.90
48912;DHT22;34722;52.108;5.044;2023-02-15T11:09:05;13.00;99.90
48912;DHT22;34722;52.108;5.044;2023-02-15T11:11:37;12.80;99.90
48912;DHT22;34722;52.108;5.044;2023-02-15T11:17:04;12.90;99.90
48912;DHT22;34722;52.108;5.044;2023-02-15T11:22:22;12.80;1.00
48912;DHT22;34722;52.108;5.044;2023-02-15T11:24:48;13.30;82.50
48912;DHT22;34722;52.108;5.044;2023-02-15T11:27:22;14.00;99.90
48912;DHT22;34722;52.108;5.044;2023-02-15T11:33:16;14.70;99.90
48912;DHT22;34722;52.108;5.044;2023-02-15T11:38:31;15.10;1.00
48912;DHT22;34722;52.108;5.044;2023-02-15T11:41:07;14.60;49.30
48912;DHT22;34722;52.108;5.044;2023-02-15T11:43:36;14.00;99.90
48912;DHT22;34722;52.108;5.044;2023-02-15T11:46:05;14.00;1.00
48912;DHT22;34722;52.108;5.044;2023-02-15T11:48:32;14.80;99.90
48912;DHT22;34722;52.108;5.044;2023-02-15T11:50:59;15.10;1.00
48912;DHT22;34722;52.108;5.044;2023-02-15T11:53:26;15.10;1.00
48912;DHT22;34722;52.108;5.044;2023-02-15T11:55:54;15.40;1.00
48912;DHT22;34722;52.108;5.044;2023-02-15T12:30:48;14.80;56.00
48912;DHT22;34722;52.108;5.044;2023-02-15T12:35:39;15.70;1.00
48912;DHT22;34722;52.108;5.044;2023-02-15T12:38:25;15.70;1.00
48912;DHT22;34722;52.108;5.044;2023-02-15T12:41:03;16.30;1.00
48912;DHT22;34722;52.108;5.044;2023-02-15T12:43:37;16.40;99.90
48912;DHT22;34722;52.108;5.044;2023-02-15T12:48:44;17.40;99.90
48912;DHT22;34722;52.108;5.044;2023-02-15T12:51:14;16.60;99.90
48912;DHT22;34722;52.108;5.044;2023-02-15T12:53:40;16.20;99.90
48912;DHT22;34722;52.108;5.044;2023-02-15T12:56:08;15.60;1.00
48912;DHT22;34722;52.108;5.044;2023-02-15T12:58:38;14.40;53.20
48912;DHT22;34722;52.108;5.044;2023-02-15T13:01:15;13.50;1.00
48912;DHT22;34722;52.108;5.044;2023-02-15T13:04:08;13.10;99.90
48912;DHT22;34722;52.108;5.044;2023-02-15T13:06:47;12.60;99.90
48912;DHT22;34722;52.108;5.044;2023-02-15T13:12:19;12.20;57.70
48912;DHT22;34722;52.108;5.044;2023-02-15T13:14:47;11.90;1.00
48912;DHT22;34722;52.108;5.044;2023-02-15T13:17:16;11.90;99.90
48912;DHT22;34722;52.108;5.044;2023-02-15T13:19:48;11.90;1.00
48912;DHT22;34722;52.108;5.044;2023-02-15T13:25:46;12.10;1.00
48912;DHT22;34722;52.108;5.044;2023-02-15T13:28:17;12.20;1.00
48912;DHT22;34722;52.108;5.044;2023-02-15T13:30:45;12.40;1.00
48912;DHT22;34722;52.108;5.044;2023-02-15T13:33:32;12.50;99.90
48912;DHT22;34722;52.108;5.044;2023-02-15T13:36:09;12.50;99.90
48912;DHT22;34722;52.108;5.044;2023-02-15T13:41:45;12.10;99.90
48912;DHT22;34722;52.108;5.044;2023-02-15T13:52:47;11.80;99.90
48912;DHT22;34722;52.108;5.044;2023-02-15T14:06:21;12.00;1.00
48912;DHT22;34722;52.108;5.044;2023-02-15T14:09:14;11.90;99.90
48912;DHT22;34722;52.108;5.044;2023-02-15T14:20:01;11.50;99.90
48912;DHT22;34722;52.108;5.044;2023-02-15T14:30:34;11.30;99.90
48912;DHT22;34722;52.108;5.044;2023-02-15T14:35:53;11.30;1.00
48912;DHT22;34722;52.108;5.044;2023-02-15T14:38:43;11.20;1.00
48912;DHT22;34722;52.108;5.044;2023-02-15T14:49:17;11.30;1.00
48912;DHT22;34722;52.108;5.044;2023-02-15T14:59:50;11.10;1.00
48912;DHT22;34722;52.108;5.044;2023-02-15T15:02:47;11.10;1.00
48912;DHT22;34722;52.108;5.044;2023-02-15T15:05:47;11.00;1.00
48912;DHT22;34722;52.108;5.044;2023-02-15T15:08:31;10.90;1.00
48912;DHT22;34722;52.108;5.044;2023-02-15T15:19:08;10.70;1.00
48912;DHT22;34722;52.108;5.044;2023-02-15T15:38:44;10.30;1.00
48912;DHT22;34722;52.108;5.044;2023-02-15T15:49:15;10.20;16.60
48912;DHT22;34722;52.108;5.044;2023-02-15T15:51:42;10.20;18.10
48912;DHT22;34722;52.108;5.044;2023-02-15T15:54:18;10.10;24.00
48912;DHT22;34722;52.108;5.044;2023-02-15T15:56:51;10.00;28.90
48912;DHT22;34722;52.108;5.044;2023-02-15T15:59:25;10.00;35.40
48912;DHT22;34722;52.108;5.044;2023-02-15T16:01:51;9.90;44.70
48912;DHT22;34722;52.108;5.044;2023-02-15T16:04:26;9.80;50.30
48912;DHT22;34722;52.108;5.044;2023-02-15T16:06:52;9.80;56.10
48912;DHT22;34722;52.108;5.044;2023-02-15T16:09:26;9.70;59.90
48912;DHT22;34722;52.108;5.044;2023-02-15T16:11:56;9.70;62.70
48912;DHT22;34722;52.108;5.044;2023-02-15T16:16:56;9.60;78.90
48912;DHT22;34722;52.108;5.044;2023-02-15T16:19:27;9.50;86.00
48912;DHT22;34722;52.108;5.044;2023-02-15T16:21:54;9.40;91.90
48912;DHT22;34722;52.108;5.044;2023-02-15T16:29:26;9.20;99.90
48912;DHT22;34722;52.108;5.044;2023-02-15T16:32:06;9.10;99.90
48912;DHT22;34722;52.108;5.044;2023-02-15T16:34:59;9.00;99.90
48912;DHT22;34722;52.108;5.044;2023-02-15T16:37:27;8.80;99.90
48912;DHT22;34722;52.108;5.044;2023-02-15T16:39:55;8.80;99.90
48912;DHT22;34722;52.108;5.044;2023-02-15T16:42:21;8.70;99.90
48912;DHT22;34722;52.108;5.044;2023-02-15T16:45:08;8.70;99.90
48912;DHT22;34722;52.108;5.044;2023-02-15T16:47:40;8.60;99.90
48912;DHT22;34722;52.108;5.044;2023-02-15T16:50:20;8.60;99.90
48912;DHT22;34722;52.108;5.044;2023-02-15T16:52:46;8.60;99.90
48912;DHT22;34722;52.108;5.044;2023-02-15T16:55:32;8.50;99.90
48912;DHT22;34722;52.108;5.044;2023-02-15T16:58:02;8.40;99.90
48912;DHT22;34722;52.108;5.044;2023-02-15T17:00:36;8.40;99.90
48912;DHT22;34722;52.108;5.044;2023-02-15T17:05:46;8.30;99.90
48912;DHT22;34722;52.108;5.044;2023-02-15T17:09:04;8.20;99.90
48912;DHT22;34722;52.108;5.044;2023-02-15T17:11:14;8.20;99.90
48912;DHT22;34722;52.108;5.044;2023-02-15T17:16:34;8.20;99.90
48912;DHT22;34722;52.108;5.044;2023-02-15T17:19:12;8.20;99.90
48912;DHT22;34722;52.108;5.044;2023-02-15T17:21:43;8.10;99.90
48912;DHT22;34722;52.108;5.044;2023-02-15T17:24:33;8.10;99.90
48912;DHT22;34722;52.108;5.044;2023-02-15T17:27:12;8.10;99.90
48912;DHT22;34722;52.108;5.044;2023-02-15T17:29:43;8.10;99.90
48912;DHT22;34722;52.108;5.044;2023-02-15T17:32:20;8.00;99.90
48912;DHT22;34722;52.108;5.044;2023-02-15T17:42:43;8.10;99.90
48912;DHT22;34722;52.108;5.044;2023-02-15T17:45:09;8.00;99.90
48912;DHT22;34722;52.108;5.044;2023-02-15T17:47:35;8.00;99.90
48912;DHT22;34722;52.108;5.044;2023-02-15T17:50:03;8.00;99.90
48912;DHT22;34722;52.108;5.044;2023-02-15T17:52:29;7.90;99.90
48912;DHT22;34722;52.108;5.044;2023-02-15T17:54:55;7.90;99.90
48912;DHT22;34722;52.108;5.044;2023-02-15T17:57:40;7.90;99.90
48912;DHT22;34722;52.108;5.044;2023-02-15T18:00:06;7.90;99.90
48912;DHT22;34722;52.108;5.044;2023-02-15T18:02:51;7.90;99.90
48912;DHT22;34722;52.108;5.044;2023-02-15T18:05:36;7.90;99.90
48912;DHT22;34722;52.108;5.044;2023-02-15T18:08:25;8.00;99.90
48912;DHT22;34722;52.108;5.044;2023-02-15T18:11:11;7.90;99.90
48912;DHT22;34722;52.108;5.044;2023-02-15T18:13:55;7.90;99.90
48912;DHT22;34722;52.108;5.044;2023-02-15T18:16:28;7.80;99.90
48912;DHT22;34722;52.108;5.044;2023-02-15T18:18:55;7.80;99.90
48912;DHT22;34722;52.108;5.044;2023-02-15T18:21:22;7.70;99.90
48912;DHT22;34722;52.108;5.044;2023-02-15T18:23:48;7.60;99.90
48912;DHT22;34722;52.108;5.044;2023-02-15T18:26:22;7.60;99.90
48912;DHT22;34722;52.108;5.044;2023-02-15T18:28:48;7.60;99.90
48912;DHT22;34722;52.108;5.044;2023-02-15T18:31:14;7.60;99.90
48912;DHT22;34722;52.108;5.044;2023-02-15T18:33:54;7.60;99.90
48912;DHT22;34722;52.108;5.044;2023-02-15T18:36:30;7.50;99.90
48912;DHT22;34722;52.108;5.044;2023-02-15T18:38:58;7.50;99.90
48912;DHT22;34722;52.108;5.044;2023-02-15T18:41:24;7.60;99.90
48912;DHT22;34722;52.108;5.044;2023-02-15T18:43:50;7.50;99.90
48912;DHT22;34722;52.108;5.044;2023-02-15T18:46:16;7.60;99.90
48912;DHT22;34722;52.108;5.044;2023-02-15T18:48:43;7.50;99.90
48912;DHT22;34722;52.108;5.044;2023-02-15T18:51:22;7.50;99.90
48912;DHT22;34722;52.108;5.044;2023-02-15T18:53:50;7.50;99.90
48912;DHT22;34722;52.108;5.044;2023-02-15T18:56:19;7.50;99.90
48912;DHT22;34722;52.108;5.044;2023-02-15T18:58:46;7.50;99.90
48912;DHT22;34722;52.108;5.044;2023-02-15T19:01:17;7.60;99.90
48912;DHT22;34722;52.108;5.044;2023-02-15T19:03:48;7.60;99.90
48912;DHT22;34722;52.108;5.044;2023-02-15T19:06:16;7.70;99.90
48912;DHT22;34722;52.108;5.044;2023-02-15T19:08:44;7.70;99.90
48912;DHT22;34722;52.108;5.044;2023-02-15T19:11:14;7.70;99.90
48912;DHT22;34722;52.108;5.044;2023-02-15T19:13:40;7.70;99.90
48912;DHT22;34722;52.108;5.044;2023-02-15T19:16:07;7.60;99.90
48912;DHT22;34722;52.108;5.044;2023-02-15T19:18:34;7.60;99.90
48912;DHT22;34722;52.108;5.044;2023-02-15T19:20:59;7.60;99.90
48912;DHT22;34722;52.108;5.044;2023-02-15T19:23:25;7.50;99.90
48912;DHT22;34722;52.108;5.044;2023-02-15T19:25:52;7.50;99.90
48912;DHT22;34722;52.108;5.044;2023-02-15T19:28:33;7.40;99.90
48912;DHT22;34722;52.108;5.044;2023-02-15T19:30:59;7.40;99.90
48912;DHT22;34722;52.108;5.044;2023-02-15T19:33:25;7.40;99.90
48912;DHT22;34722;52.108;5.044;2023-02-15T19:35:52;7.30;99.90
48912;DHT22;34722;52.108;5.044;2023-02-15T19:38:24;7.30;99.90
48912;DHT22;34722;52.108;5.044;2023-02-15T19:40:50;7.30;99.90
48912;DHT22;34722;52.108;5.044;2023-02-15T19:43:20;7.30;99.90
48912;DHT22;34722;52.108;5.044;2023-02-15T19:45:51;7.30;99.90
48912;DHT22;34722;52.108;5.044;2023-02-15T19:48:20;7.30;99.90
48912;DHT22;34722;52.108;5.044;2023-02-15T19:50:46;7.20;99.90
48912;DHT22;34722;52.108;5.044;2023-02-15T19:53:21;7.20;99.90
48912;DHT22;34722;52.108;5.044;2023-02-15T19:55:49;7.10;99.90
48912;DHT22;34722;52.108;5.044;2023-02-15T19:58:15;7.10;99.90
48912;DHT22;34722;52.108;5.044;2023-02-15T20:00:45;7.10;99.90
48912;DHT22;34722;52.108;5.044;2023-02-15T20:03:11;7.00;99.90
48912;DHT22;34722;52.108;5.044;2023-02-15T20:05:37;7.00;99.90
48912;DHT22;34722;52.108;5.044;2023-02-15T20:08:04;7.00;99.90
48912;DHT22;34722;52.108;5.044;2023-02-15T20:10:33;6.90;99.90
48912;DHT22;34722;52.108;5.044;2023-02-15T20:13:00;6.90;99.90
48912;DHT22;34722;52.108;5.044;2023-02-15T20:15:27;6.90;99.90
48912;DHT22;34722;52.108;5.044;2023-02-15T20:17:54;6.90;99.90
48912;DHT22;34722;52.108;5.044;2023-02-15T20:20:21;6.90;99.90
48912;DHT22;34722;52.108;5.044;2023-02-15T20:22:50;6.90;99.90
48912;DHT22;34722;52.108;5.044;2023-02-15T20:25:19;6.80;99.90
48912;DHT22;34722;52.108;5.044;2023-02-15T20:27:46;6.70;99.90
48912;DHT22;34722;52.108;5.044;2023-02-15T20:30:24;6.70;99.90